sensor_id;sensor_type;location;lat;lon;timestamp;temperature;humidity
8422;DHT22;4248;48.196;10.924;2023-06-22T00:01:50;19.90;46.50
8422;DHT22;4248;48.196;10.924;2023-06-22T00:04:15;19.90;47.60
8422;DHT22;4248;48.196;10.924;2023-06-22T00:06:41;20.20;47.80
8422;DHT22;4248;48.196;10.924;2023-06-22T00:09:06;19.80;47.60
8422;DHT22;4248;48.196;10.924;2023-06-22T00:11:33;19.80;46.40
8422;DHT22;4248;48.196;10.924;2023-06-22T00:13:59;19.90;47.60
8422;DHT22;4248;48.196;10.924;2023-06-22T00:16:25;19.80;48.00
8422;DHT22;4248;48.196;10.924;2023-06-22T00:18:50;19.80;47.80
8422;DHT22;4248;48.196;10.924;2023-06-22T00:21:16;19.80;47.30
8422;DHT22;4248;48.196;10.924;2023-06-22T00:23:42;19.70;48.10
8422;DHT22;4248;48.196;10.924;2023-06-22T00:26:07;19.70;47.70
8422;DHT22;4248;48.196;10.924;2023-06-22T00:28:33;19.70;47.90
8422;DHT22;4248;48.196;10.924;2023-06-22T00:30:59;19.70;47.60
8422;DHT22;4248;48.196;10.924;2023-06-22T00:33:26;19.90;47.60
8422;DHT22;4248;48.196;10.924;2023-06-22T00:35:52;19.70;47.40
8422;DHT22;4248;48.196;10.924;2023-06-22T00:38:19;19.70;47.40
8422;DHT22;4248;48.196;10.924;2023-06-22T00:40:44;19.70;47.30
8422;DHT22;4248;48.196;10.924;2023-06-22T00:43:10;19.70;47.40
8422;DHT22;4248;48.196;10.924;2023-06-22T00:45:36;19.70;47.50
8422;DHT22;4248;48.196;10.924;2023-06-22T00:48:02;19.60;48.00
8422;DHT22;4248;48.196;10.924;2023-06-22T00:50:31;19.60;48.30
8422;DHT22;4248;48.196;10.924;2023-06-22T00:53:05;19.60;48.00
8422;DHT22;4248;48.196;10.924;2023-06-22T00:55:36;19.70;48.20
8422;DHT22;4248;48.196;10.924;2023-06-22T00:58:06;19.60;47.90
8422;DHT22;4248;48.196;10.924;2023-06-22T01:00:33;19.70;48.00
8422;DHT22;4248;48.196;10.924;2023-06-22T01:02:59;19.50;47.80
8422;DHT22;4248;48.196;10.924;2023-06-22T01:05:24;19.50;48.10
8422;DHT22;4248;48.196;10.924;2023-06-22T01:10:41;19.50;48.00
8422;DHT22;4248;48.196;10.924;2023-06-22T01:13:16;19.50;47.90
8422;DHT22;4248;48.196;10.924;2023-06-22T01:15:48;19.50;47.60
8422;DHT22;4248;48.196;10.924;2023-06-22T01:18:17;19.40;47.90
8422;DHT22;4248;48.196;10.924;2023-06-22T01:20:43;19.40;47.20
8422;DHT22;4248;48.196;10.924;2023-06-22T01:26:18;19.40;47.90
8422;DHT22;4248;48.196;10.924;2023-06-22T01:28:52;19.40;47.70
8422;DHT22;4248;48.196;10.924;2023-06-22T01:31:24;19.40;46.90
8422;DHT22;4248;48.196;10.924;2023-06-22T01:34:05;19.40;47.80
8422;DHT22;4248;48.196;10.924;2023-06-22T01:36:32;18.90;47.60
8422;DHT22;4248;48.196;10.924;2023-06-22T01:38:59;19.30;48.00
8422;DHT22;4248;48.196;10.924;2023-06-22T01:41:26;19.30;48.10
8422;DHT22;4248;48.196;10.924;2023-06-22T01:43:53;19.30;48.30
8422;DHT22;4248;48.196;10.924;2023-06-22T01:46:20;19.30;48.40
8422;DHT22;4248;48.196;10.924;2023-06-22T01:48:47;19.20;48.40
8422;DHT22;4248;48.196;10.924;2023-06-22T01:51:13;19.20;48.60
8422;DHT22;4248;48.196;10.924;2023-06-22T01:53:39;19.30;48.80
8422;DHT22;4248;48.196;10.924;2023-06-22T01:56:04;19.20;48.60
8422;DHT22;4248;48.196;10.924;2023-06-22T01:58:31;19.20;48.70
8422;DHT22;4248;48.196;10.924;2023-06-22T02:01:10;19.10;48.00
8422;DHT22;4248;48.196;10.924;2023-06-22T02:04:03;19.20;49.10
8422;DHT22;4248;48.196;10.924;2023-06-22T02:06:34;19.10;48.90
8422;DHT22;4248;48.196;10.924;2023-06-22T02:09:07;19.20;48.90
8422;DHT22;4248;48.196;10.924;2023-06-22T02:11:35;19.10;48.80
8422;DHT22;4248;48.196;10.924;2023-06-22T02:14:01;19.10;48.80
8422;DHT22;4248;48.196;10.924;2023-06-22T02:16:27;19.10;48.80
8422;DHT22;4248;48.196;10.924;2023-06-22T02:18:56;19.10;48.80
8422;DHT22;4248;48.196;10.924;2023-06-22T02:21:27;19.00;48.90
8422;DHT22;4248;48.196;10.924;2023-06-22T02:23:52;19.00;48.60
8422;DHT22;4248;48.196;10.924;2023-06-22T02:26:18;19.00;48.60
8422;DHT22;4248;48.196;10.924;2023-06-22T02:28:44;18.90;48.50
8422;DHT22;4248;48.196;10.924;2023-06-22T02:31:10;18.90;47.70
8422;DHT22;4248;48.196;10.924;2023-06-22T02:33:36;18.90;48.80
8422;DHT22;4248;48.196;10.924;2023-06-22T02:36:02;18.90;48.90
8422;DHT22;4248;48.196;10.924;2023-06-22T02:38:31;18.80;49.10
8422;DHT22;4248;48.196;10.924;2023-06-22T02:41:00;18.70;48.50
8422;DHT22;4248;48.196;10.924;2023-06-22T02:43:26;18.70;49.50
8422;DHT22;4248;48.196;10.924;2023-06-22T02:45:52;18.70;49.70
8422;DHT22;4248;48.196;10.924;2023-06-22T02:48:17;18.70;49.80
8422;DHT22;4248;48.196;10.924;2023-06-22T02:50:43;18.60;48.90
8422;DHT22;4248;48.196;10.924;2023-06-22T02:53:08;18.60;49.80
8422;DHT22;4248;48.196;10.924;2023-06-22T02:55:34;18.60;49.90
8422;DHT22;4248;48.196;10.924;2023-06-22T02:57:59;18.60;50.00
8422;DHT22;4248;48.196;10.924;2023-06-22T03:00:25;18.50;50.30
8422;DHT22;4248;48.196;10.924;2023-06-22T03:02:56;18.50;50.50
8422;DHT22;4248;48.196;10.924;2023-06-22T03:05:22;18.50;50.50
8422;DHT22;4248;48.196;10.924;2023-06-22T03:07:48;18.50;50.50
8422;DHT22;4248;48.196;10.924;2023-06-22T03:10:15;18.50;50.40
8422;DHT22;4248;48.196;10.924;2023-06-22T03:12:41;18.50;50.30
8422;DHT22;4248;48.196;10.924;2023-06-22T03:15:11;18.60;50.50
8422;DHT22;4248;48.196;10.924;2023-06-22T03:17:39;18.40;50.80
8422;DHT22;4248;48.196;10.924;2023-06-22T03:20:05;18.40;50.70
8422;DHT22;4248;48.196;10.924;2023-06-22T03:22:39;18.40;51.60
8422;DHT22;4248;48.196;10.924;2023-06-22T03:25:05;18.40;52.00
8422;DHT22;4248;48.196;10.924;2023-06-22T03:27:36;18.30;51.70
8422;DHT22;4248;48.196;10.924;2023-06-22T03:30:02;18.50;50.80
8422;DHT22;4248;48.196;10.924;2023-06-22T03:32:28;18.40;51.60
8422;DHT22;4248;48.196;10.924;2023-06-22T03:34:54;18.40;52.00
8422;DHT22;4248;48.196;10.924;2023-06-22T03:37:19;18.50;51.90
8422;DHT22;4248;48.196;10.924;2023-06-22T03:39:45;18.60;52.00
8422;DHT22;4248;48.196;10.924;2023-06-22T03:42:10;18.60;51.00
8422;DHT22;4248;48.196;10.924;2023-06-22T03:44:36;18.70;52.20
8422;DHT22;4248;48.196;10.924;2023-06-22T03:47:03;18.80;52.20
8422;DHT22;4248;48.196;10.924;2023-06-22T03:49:29;18.80;52.40
8422;DHT22;4248;48.196;10.924;2023-06-22T03:51:54;18.80;51.50
8422;DHT22;4248;48.196;10.924;2023-06-22T03:54:20;18.90;52.20
8422;DHT22;4248;48.196;10.924;2023-06-22T03:56:45;19.10;51.80
8422;DHT22;4248;48.196;10.924;2023-06-22T03:59:11;19.20;51.40
8422;DHT22;4248;48.196;10.924;2023-06-22T04:01:36;19.50;52.10
8422;DHT22;4248;48.196;10.924;2023-06-22T04:04:02;19.50;50.40
8422;DHT22;4248;48.196;10.924;2023-06-22T04:06:27;19.60;50.20
8422;DHT22;4248;48.196;10.924;2023-06-22T04:08:53;19.60;50.30
8422;DHT22;4248;48.196;10.924;2023-06-22T04:11:18;19.70;49.10
8422;DHT22;4248;48.196;10.924;2023-06-22T04:13:44;19.80;50.10
8422;DHT22;4248;48.196;10.924;2023-06-22T04:16:10;19.90;49.70
8422;DHT22;4248;48.196;10.924;2023-06-22T04:18:35;20.00;49.30
8422;DHT22;4248;48.196;10.924;2023-06-22T04:21:02;20.20;47.60
8422;DHT22;4248;48.196;10.924;2023-06-22T04:23:27;20.30;48.40
8422;DHT22;4248;48.196;10.924;2023-06-22T04:25:53;20.40;48.10
8422;DHT22;4248;48.196;10.924;2023-06-22T04:28:18;20.40;48.00
8422;DHT22;4248;48.196;10.924;2023-06-22T04:30:44;20.70;46.20
8422;DHT22;4248;48.196;10.924;2023-06-22T04:33:14;20.80;47.00
8422;DHT22;4248;48.196;10.924;2023-06-22T04:35:39;20.90;46.10
8422;DHT22;4248;48.196;10.924;2023-06-22T04:38:07;21.00;45.90
8422;DHT22;4248;48.196;10.924;2023-06-22T04:40:33;21.10;45.90
8422;DHT22;4248;48.196;10.924;2023-06-22T04:42:59;21.40;45.30
8422;DHT22;4248;48.196;10.924;2023-06-22T04:45:30;21.80;44.60
8422;DHT22;4248;48.196;10.924;2023-06-22T04:47:56;22.30;43.20
8422;DHT22;4248;48.196;10.924;2023-06-22T04:50:21;23.30;38.70
8422;DHT22;4248;48.196;10.924;2023-06-22T04:52:49;23.40;39.30
8422;DHT22;4248;48.196;10.924;2023-06-22T04:55:15;23.80;37.50
8422;DHT22;4248;48.196;10.924;2023-06-22T04:57:45;24.00;36.90
8422;DHT22;4248;48.196;10.924;2023-06-22T05:02:43;24.50;34.90
8422;DHT22;4248;48.196;10.924;2023-06-22T05:05:10;24.80;34.20
8422;DHT22;4248;48.196;10.924;2023-06-22T05:07:56;24.60;33.50
8422;DHT22;4248;48.196;10.924;2023-06-22T05:10:25;25.00;32.50
8422;DHT22;4248;48.196;10.924;2023-06-22T05:12:51;25.30;32.30
8422;DHT22;4248;48.196;10.924;2023-06-22T05:15:17;25.50;30.00
8422;DHT22;4248;48.196;10.924;2023-06-22T05:17:44;26.00;28.90
8422;DHT22;4248;48.196;10.924;2023-06-22T05:20:11;26.30;26.60
8422;DHT22;4248;48.196;10.924;2023-06-22T05:22:37;26.40;27.00
8422;DHT22;4248;48.196;10.924;2023-06-22T05:25:05;27.00;25.40
8422;DHT22;4248;48.196;10.924;2023-06-22T05:27:31;27.30;23.70
8422;DHT22;4248;48.196;10.924;2023-06-22T05:29:57;27.30;22.70
8422;DHT22;4248;48.196;10.924;2023-06-22T05:32:22;27.20;23.50
8422;DHT22;4248;48.196;10.924;2023-06-22T05:34:48;27.20;23.60
8422;DHT22;4248;48.196;10.924;2023-06-22T05:37:13;27.50;22.50
8422;DHT22;4248;48.196;10.924;2023-06-22T05:39:39;27.90;21.30
8422;DHT22;4248;48.196;10.924;2023-06-22T05:42:05;27.80;19.90
8422;DHT22;4248;48.196;10.924;2023-06-22T05:44:31;27.60;21.30
8422;DHT22;4248;48.196;10.924;2023-06-22T05:46:58;27.60;21.10
8422;DHT22;4248;48.196;10.924;2023-06-22T05:49:24;28.00;19.50
8422;DHT22;4248;48.196;10.924;2023-06-22T05:51:55;28.50;17.50
8422;DHT22;4248;48.196;10.924;2023-06-22T05:54:21;28.80;17.90
8422;DHT22;4248;48.196;10.924;2023-06-22T05:56:47;28.40;18.40
8422;DHT22;4248;48.196;10.924;2023-06-22T05:59:13;27.40;20.80
8422;DHT22;4248;48.196;10.924;2023-06-22T06:01:38;26.40;23.20
8422;DHT22;4248;48.196;10.924;2023-06-22T06:04:05;25.60;25.20
8422;DHT22;4248;48.196;10.924;2023-06-22T06:06:33;25.20;26.10
8422;DHT22;4248;48.196;10.924;2023-06-22T06:09:00;25.10;26.00
8422;DHT22;4248;48.196;10.924;2023-06-22T06:11:25;25.20;25.20
8422;DHT22;4248;48.196;10.924;2023-06-22T06:13:51;25.00;26.00
8422;DHT22;4248;48.196;10.924;2023-06-22T06:16:17;25.00;26.00
8422;DHT22;4248;48.196;10.924;2023-06-22T06:18:42;25.00;26.00
8422;DHT22;4248;48.196;10.924;2023-06-22T06:21:08;25.40;24.50
8422;DHT22;4248;48.196;10.924;2023-06-22T06:23:33;25.50;25.00
8422;DHT22;4248;48.196;10.924;2023-06-22T06:25:59;25.70;24.60
8422;DHT22;4248;48.196;10.924;2023-06-22T06:28:25;25.80;24.50
8422;DHT22;4248;48.196;10.924;2023-06-22T06:30:50;25.80;23.20
8422;DHT22;4248;48.196;10.924;2023-06-22T06:33:17;25.80;24.10
8422;DHT22;4248;48.196;10.924;2023-06-22T06:35:42;25.70;24.20
8422;DHT22;4248;48.196;10.924;2023-06-22T06:38:08;25.60;24.30
8422;DHT22;4248;48.196;10.924;2023-06-22T06:40:33;25.60;23.20
8422;DHT22;4248;48.196;10.924;2023-06-22T06:42:59;25.80;24.20
8422;DHT22;4248;48.196;10.924;2023-06-22T06:45:25;25.60;24.00
8422;DHT22;4248;48.196;10.924;2023-06-22T06:47:52;25.70;24.00
8422;DHT22;4248;48.196;10.924;2023-06-22T06:50:18;25.70;23.30
8422;DHT22;4248;48.196;10.924;2023-06-22T06:52:44;25.70;24.20
8422;DHT22;4248;48.196;10.924;2023-06-22T06:55:10;25.80;24.10
8422;DHT22;4248;48.196;10.924;2023-06-22T06:57:38;26.00;23.90
8422;DHT22;4248;48.196;10.924;2023-06-22T07:00:08;25.90;22.60
8422;DHT22;4248;48.196;10.924;2023-06-22T07:02:39;25.90;23.50
8422;DHT22;4248;48.196;10.924;2023-06-22T07:05:06;25.90;23.70
8422;DHT22;4248;48.196;10.924;2023-06-22T07:07:32;26.00;23.60
8422;DHT22;4248;48.196;10.924;2023-06-22T07:09:58;26.10;22.50
8422;DHT22;4248;48.196;10.924;2023-06-22T07:12:24;26.20;24.40
8422;DHT22;4248;48.196;10.924;2023-06-22T07:14:49;26.40;23.10
8422;DHT22;4248;48.196;10.924;2023-06-22T07:17:15;26.70;22.60
8422;DHT22;4248;48.196;10.924;2023-06-22T07:19:41;26.70;22.30
8422;DHT22;4248;48.196;10.924;2023-06-22T07:22:07;26.60;21.60
8422;DHT22;4248;48.196;10.924;2023-06-22T07:24:33;26.60;22.50
8422;DHT22;4248;48.196;10.924;2023-06-22T07:26:59;26.30;22.70
8422;DHT22;4248;48.196;10.924;2023-06-22T07:29:25;26.50;22.80
8422;DHT22;4248;48.196;10.924;2023-06-22T07:31:52;26.80;21.40
8422;DHT22;4248;48.196;10.924;2023-06-22T07:34:18;27.00;21.90
8422;DHT22;4248;48.196;10.924;2023-06-22T07:36:45;27.00;21.70
8422;DHT22;4248;48.196;10.924;2023-06-22T07:39:11;26.90;22.10
8422;DHT22;4248;48.196;10.924;2023-06-22T07:41:39;26.90;21.10
8422;DHT22;4248;48.196;10.924;2023-06-22T07:44:05;27.10;21.70
8422;DHT22;4248;48.196;10.924;2023-06-22T07:46:31;27.40;20.90
8422;DHT22;4248;48.196;10.924;2023-06-22T07:48:57;27.20;20.80
8422;DHT22;4248;48.196;10.924;2023-06-22T07:51:23;27.10;20.10
8422;DHT22;4248;48.196;10.924;2023-06-22T07:53:49;27.20;21.10
8422;DHT22;4248;48.196;10.924;2023-06-22T07:56:14;27.30;20.90
8422;DHT22;4248;48.196;10.924;2023-06-22T07:58:44;27.30;21.10
8422;DHT22;4248;48.196;10.924;2023-06-22T08:01:11;27.70;19.60
8422;DHT22;4248;48.196;10.924;2023-06-22T08:03:36;28.00;20.00
8422;DHT22;4248;48.196;10.924;2023-06-22T08:06:02;28.30;19.10
8422;DHT22;4248;48.196;10.924;2023-06-22T08:08:28;28.00;19.20
8422;DHT22;4248;48.196;10.924;2023-06-22T08:10:53;28.20;18.10
8422;DHT22;4248;48.196;10.924;2023-06-22T08:13:19;28.20;18.90
8422;DHT22;4248;48.196;10.924;2023-06-22T08:15:44;28.00;19.00
8422;DHT22;4248;48.196;10.924;2023-06-22T08:18:10;27.70;19.80
8422;DHT22;4248;48.196;10.924;2023-06-22T08:20:35;27.80;18.90
8422;DHT22;4248;48.196;10.924;2023-06-22T08:23:01;27.80;19.70
8422;DHT22;4248;48.196;10.924;2023-06-22T08:25:32;28.00;19.40
8422;DHT22;4248;48.196;10.924;2023-06-22T08:27:58;28.30;18.80
8422;DHT22;4248;48.196;10.924;2023-06-22T08:30:23;28.60;17.00
8422;DHT22;4248;48.196;10.924;2023-06-22T08:32:49;28.60;17.70
8422;DHT22;4248;48.196;10.924;2023-06-22T08:35:14;28.50;18.00
8422;DHT22;4248;48.196;10.924;2023-06-22T08:37:40;28.40;18.30
8422;DHT22;4248;48.196;10.924;2023-06-22T08:40:08;28.20;17.70
8422;DHT22;4248;48.196;10.924;2023-06-22T08:42:37;28.20;18.50
8422;DHT22;4248;48.196;10.924;2023-06-22T08:45:03;28.50;18.10
8422;DHT22;4248;48.196;10.924;2023-06-22T08:47:29;28.60;17.50
8422;DHT22;4248;48.196;10.924;2023-06-22T08:49:54;28.60;17.60
8422;DHT22;4248;48.196;10.924;2023-06-22T08:52:20;28.60;16.50
8422;DHT22;4248;48.196;10.924;2023-06-22T08:54:46;28.50;17.70
8422;DHT22;4248;48.196;10.924;2023-06-22T08:57:12;28.40;17.90
8422;DHT22;4248;48.196;10.924;2023-06-22T08:59:38;28.70;17.50
8422;DHT22;4248;48.196;10.924;2023-06-22T09:02:03;28.80;16.90
8422;DHT22;4248;48.196;10.924;2023-06-22T09:04:29;28.80;16.90
8422;DHT22;4248;48.196;10.924;2023-06-22T09:06:54;29.00;17.10
8422;DHT22;4248;48.196;10.924;2023-06-22T09:09:21;29.30;16.70
8422;DHT22;4248;48.196;10.924;2023-06-22T09:11:47;29.40;15.20
8422;DHT22;4248;48.196;10.924;2023-06-22T09:14:12;29.30;16.50
8422;DHT22;4248;48.196;10.924;2023-06-22T09:16:38;29.40;17.00
8422;DHT22;4248;48.196;10.924;2023-06-22T09:19:03;29.40;16.30
8422;DHT22;4248;48.196;10.924;2023-06-22T09:21:29;29.30;15.80
8422;DHT22;4248;48.196;10.924;2023-06-22T09:23:55;29.40;16.50
8422;DHT22;4248;48.196;10.924;2023-06-22T09:26:21;29.50;16.30
8422;DHT22;4248;48.196;10.924;2023-06-22T09:28:48;29.70;15.60
8422;DHT22;4248;48.196;10.924;2023-06-22T09:31:13;29.90;15.20
8422;DHT22;4248;48.196;10.924;2023-06-22T09:33:40;29.90;15.30
8422;DHT22;4248;48.196;10.924;2023-06-22T09:36:06;29.90;15.30
8422;DHT22;4248;48.196;10.924;2023-06-22T09:38:38;30.20;14.90
8422;DHT22;4248;48.196;10.924;2023-06-22T09:41:04;30.30;13.60
8422;DHT22;4248;48.196;10.924;2023-06-22T09:43:31;30.50;14.10
8422;DHT22;4248;48.196;10.924;2023-06-22T09:45:57;30.20;14.00
8422;DHT22;4248;48.196;10.924;2023-06-22T09:48:23;30.40;14.20
8422;DHT22;4248;48.196;10.924;2023-06-22T09:50:49;30.40;13.10
8422;DHT22;4248;48.196;10.924;2023-06-22T09:53:14;30.50;14.00
8422;DHT22;4248;48.196;10.924;2023-06-22T09:55:40;30.70;13.50
8422;DHT22;4248;48.196;10.924;2023-06-22T09:58:05;30.90;13.00
8422;DHT22;4248;48.196;10.924;2023-06-22T10:00:31;31.00;12.80
8422;DHT22;4248;48.196;10.924;2023-06-22T10:02:57;30.90;12.80
8422;DHT22;4248;48.196;10.924;2023-06-22T10:05:23;31.00;12.80
8422;DHT22;4248;48.196;10.924;2023-06-22T10:07:48;31.00;12.40
8422;DHT22;4248;48.196;10.924;2023-06-22T10:10:14;31.20;11.30
8422;DHT22;4248;48.196;10.924;2023-06-22T10:12:48;31.10;12.00
8422;DHT22;4248;48.196;10.924;2023-06-22T10:15:19;31.50;11.70
8422;DHT22;4248;48.196;10.924;2023-06-22T10:17:46;31.60;11.10
8422;DHT22;4248;48.196;10.924;2023-06-22T10:20:12;31.80;9.50
8422;DHT22;4248;48.196;10.924;2023-06-22T10:22:39;31.80;10.00
8422;DHT22;4248;48.196;10.924;2023-06-22T10:25:05;31.90;9.00
8422;DHT22;4248;48.196;10.924;2023-06-22T10:27:31;31.80;9.50
8422;DHT22;4248;48.196;10.924;2023-06-22T10:29:57;31.70;9.90
8422;DHT22;4248;48.196;10.924;2023-06-22T10:32:23;31.90;9.50
8422;DHT22;4248;48.196;10.924;2023-06-22T10:34:49;32.20;9.10
8422;DHT22;4248;48.196;10.924;2023-06-22T10:37:14;31.90;8.40
8422;DHT22;4248;48.196;10.924;2023-06-22T10:39:40;31.90;9.30
8422;DHT22;4248;48.196;10.924;2023-06-22T10:42:06;31.60;8.30
8422;DHT22;4248;48.196;10.924;2023-06-22T10:44:31;31.50;9.40
8422;DHT22;4248;48.196;10.924;2023-06-22T10:46:57;31.50;9.20
8422;DHT22;4248;48.196;10.924;2023-06-22T10:49:22;31.60;9.20
8422;DHT22;4248;48.196;10.924;2023-06-22T10:51:48;31.90;8.10
8422;DHT22;4248;48.196;10.924;2023-06-22T10:54:13;32.00;8.80
8422;DHT22;4248;48.196;10.924;2023-06-22T10:56:40;31.90;8.70
8422;DHT22;4248;48.196;10.924;2023-06-22T10:59:05;32.00;8.70
8422;DHT22;4248;48.196;10.924;2023-06-22T11:01:31;32.10;8.00
8422;DHT22;4248;48.196;10.924;2023-06-22T11:03:58;32.10;8.90
8422;DHT22;4248;48.196;10.924;2023-06-22T11:06:24;32.30;8.50
8422;DHT22;4248;48.196;10.924;2023-06-22T11:08:49;32.60;7.70
8422;DHT22;4248;48.196;10.924;2023-06-22T11:11:15;32.50;7.30
8422;DHT22;4248;48.196;10.924;2023-06-22T11:13:43;32.50;8.10
8422;DHT22;4248;48.196;10.924;2023-06-22T11:16:09;32.30;8.20
8422;DHT22;4248;48.196;10.924;2023-06-22T11:18:35;32.60;8.00
8422;DHT22;4248;48.196;10.924;2023-06-22T11:21:00;32.30;7.40
8422;DHT22;4248;48.196;10.924;2023-06-22T11:23:26;32.30;8.10
8422;DHT22;4248;48.196;10.924;2023-06-22T11:25:53;32.50;7.50
8422;DHT22;4248;48.196;10.924;2023-06-22T11:28:18;32.30;7.40
8422;DHT22;4248;48.196;10.924;2023-06-22T11:30:44;32.50;6.60
8422;DHT22;4248;48.196;10.924;2023-06-22T11:33:10;32.50;7.60
8422;DHT22;4248;48.196;10.924;2023-06-22T11:35:35;32.70;7.60
8422;DHT22;4248;48.196;10.924;2023-06-22T11:38:01;32.80;7.30
8422;DHT22;4248;48.196;10.924;2023-06-22T11:40:28;33.10;6.80
8422;DHT22;4248;48.196;10.924;2023-06-22T11:42:54;33.00;6.50
8422;DHT22;4248;48.196;10.924;2023-06-22T11:45:19;32.90;6.60
8422;DHT22;4248;48.196;10.924;2023-06-22T11:47:46;32.90;6.50
8422;DHT22;4248;48.196;10.924;2023-06-22T11:50:11;33.30;5.20
8422;DHT22;4248;48.196;10.924;2023-06-22T11:52:37;33.30;5.80
8422;DHT22;4248;48.196;10.924;2023-06-22T11:55:03;33.40;5.50
8422;DHT22;4248;48.196;10.924;2023-06-22T11:57:33;33.70;4.90
8422;DHT22;4248;48.196;10.924;2023-06-22T11:59:58;33.60;4.60
8422;DHT22;4248;48.196;10.924;2023-06-22T12:02:24;33.90;3.40
8422;DHT22;4248;48.196;10.924;2023-06-22T12:04:49;34.00;4.00
8422;DHT22;4248;48.196;10.924;2023-06-22T12:07:18;34.30;3.70
8422;DHT22;4248;48.196;10.924;2023-06-22T12:09:43;34.50;3.40
8422;DHT22;4248;48.196;10.924;2023-06-22T12:12:09;34.90;1.80
8422;DHT22;4248;48.196;10.924;2023-06-22T12:14:35;35.10;2.50
8422;DHT22;4248;48.196;10.924;2023-06-22T12:17:01;35.10;2.30
8422;DHT22;4248;48.196;10.924;2023-06-22T12:19:26;34.70;2.60
8422;DHT22;4248;48.196;10.924;2023-06-22T12:21:52;34.50;1.50
8422;DHT22;4248;48.196;10.924;2023-06-22T12:24:17;34.40;3.00
8422;DHT22;4248;48.196;10.924;2023-06-22T12:26:43;34.50;3.10
8422;DHT22;4248;48.196;10.924;2023-06-22T12:29:08;34.60;2.80
8422;DHT22;4248;48.196;10.924;2023-06-22T12:31:36;34.50;1.80
8422;DHT22;4248;48.196;10.924;2023-06-22T12:34:04;34.60;2.60
8422;DHT22;4248;48.196;10.924;2023-06-22T12:36:29;34.70;2.50
8422;DHT22;4248;48.196;10.924;2023-06-22T12:38:55;34.60;2.20
8422;DHT22;4248;48.196;10.924;2023-06-22T12:41:20;34.90;1.20
8422;DHT22;4248;48.196;10.924;2023-06-22T12:43:46;35.00;1.60
8422;DHT22;4248;48.196;10.924;2023-06-22T12:46:12;35.20;1.30
8422;DHT22;4248;48.196;10.924;2023-06-22T12:48:37;35.20;1.20
8422;DHT22;4248;48.196;10.924;2023-06-22T12:51:07;34.90;1.00
8422;DHT22;4248;48.196;10.924;2023-06-22T12:53:33;34.80;1.40
8422;DHT22;4248;48.196;10.924;2023-06-22T12:55:59;34.80;1.50
8422;DHT22;4248;48.196;10.924;2023-06-22T12:58:25;34.70;1.10
8422;DHT22;4248;48.196;10.924;2023-06-22T13:00:50;34.60;1.00
8422;DHT22;4248;48.196;10.924;2023-06-22T13:03:16;34.70;1.20
8422;DHT22;4248;48.196;10.924;2023-06-22T13:05:41;34.60;1.00
8422;DHT22;4248;48.196;10.924;2023-06-22T13:08:07;34.50;1.10
8422;DHT22;4248;48.196;10.924;2023-06-22T13:10:33;34.70;1.00
8422;DHT22;4248;48.196;10.924;2023-06-22T13:12:59;34.70;1.10
8422;DHT22;4248;48.196;10.924;2023-06-22T13:15:29;34.90;1.00
8422;DHT22;4248;48.196;10.924;2023-06-22T13:17:55;34.90;1.00
8422;DHT22;4248;48.196;10.924;2023-06-22T13:20:21;34.90;1.00
8422;DHT22;4248;48.196;10.924;2023-06-22T13:22:46;35.00;1.00
8422;DHT22;4248;48.196;10.924;2023-06-22T13:25:12;35.00;1.00
8422;DHT22;4248;48.196;10.924;2023-06-22T13:27:39;34.80;1.00
8422;DHT22;4248;48.196;10.924;2023-06-22T13:30:05;35.10;1.00
8422;DHT22;4248;48.196;10.924;2023-06-22T13:32:31;35.10;1.00
8422;DHT22;4248;48.196;10.924;2023-06-22T13:34:57;35.00;1.00
8422;DHT22;4248;48.196;10.924;2023-06-22T13:37:23;35.00;1.00
8422;DHT22;4248;48.196;10.924;2023-06-22T13:39:48;35.00;1.00
8422;DHT22;4248;48.196;10.924;2023-06-22T13:42:14;35.00;1.00
8422;DHT22;4248;48.196;10.924;2023-06-22T13:44:39;35.20;1.00
8422;DHT22;4248;48.196;10.924;2023-06-22T13:47:06;35.40;1.00
8422;DHT22;4248;48.196;10.924;2023-06-22T13:49:31;35.30;1.00
8422;DHT22;4248;48.196;10.924;2023-06-22T13:51:57;35.10;1.00
8422;DHT22;4248;48.196;10.924;2023-06-22T13:54:22;35.00;1.00
8422;DHT22;4248;48.196;10.924;2023-06-22T13:56:48;34.90;1.00
8422;DHT22;4248;48.196;10.924;2023-06-22T13:59:14;34.90;1.00
8422;DHT22;4248;48.196;10.924;2023-06-22T14:01:39;35.00;1.00
8422;DHT22;4248;48.196;10.924;2023-06-22T14:04:06;35.00;1.00
8422;DHT22;4248;48.196;10.924;2023-06-22T14:06:31;35.00;1.00
8422;DHT22;4248;48.196;10.924;2023-06-22T14:08:57;34.90;1.00
8422;DHT22;4248;48.196;10.924;2023-06-22T14:11:22;35.00;1.00
8422;DHT22;4248;48.196;10.924;2023-06-22T14:13:48;34.80;1.00
8422;DHT22;4248;48.196;10.924;2023-06-22T14:16:13;34.60;1.00
8422;DHT22;4248;48.196;10.924;2023-06-22T14:18:39;34.50;1.00
8422;DHT22;4248;48.196;10.924;2023-06-22T14:21:05;34.60;1.00
8422;DHT22;4248;48.196;10.924;2023-06-22T14:23:30;34.70;1.00
8422;DHT22;4248;48.196;10.924;2023-06-22T14:25:56;34.70;1.00
8422;DHT22;4248;48.196;10.924;2023-06-22T14:28:21;34.70;1.00
8422;DHT22;4248;48.196;10.924;2023-06-22T14:30:47;34.90;1.00
8422;DHT22;4248;48.196;10.924;2023-06-22T14:33:13;35.00;1.00
8422;DHT22;4248;48.196;10.924;2023-06-22T14:35:38;35.00;1.00
8422;DHT22;4248;48.196;10.924;2023-06-22T14:38:04;35.00;1.00
8422;DHT22;4248;48.196;10.924;2023-06-22T14:40:29;35.00;1.00
8422;DHT22;4248;48.196;10.924;2023-06-22T14:42:55;34.90;1.00
8422;DHT22;4248;48.196;10.924;2023-06-22T14:45:22;34.70;1.00
8422;DHT22;4248;48.196;10.924;2023-06-22T14:47:49;34.50;1.00
8422;DHT22;4248;48.196;10.924;2023-06-22T14:50:14;34.40;1.00
8422;DHT22;4248;48.196;10.924;2023-06-22T14:52:40;34.40;1.00
8422;DHT22;4248;48.196;10.924;2023-06-22T14:55:06;34.40;1.00
8422;DHT22;4248;48.196;10.924;2023-06-22T14:57:31;34.30;1.00
8422;DHT22;4248;48.196;10.924;2023-06-22T14:59:57;34.30;1.00
8422;DHT22;4248;48.196;10.924;2023-06-22T15:02:23;34.40;1.00
8422;DHT22;4248;48.196;10.924;2023-06-22T15:04:48;34.40;1.00
8422;DHT22;4248;48.196;10.924;2023-06-22T15:07:14;34.40;1.00
8422;DHT22;4248;48.196;10.924;2023-06-22T15:09:40;34.20;1.00
8422;DHT22;4248;48.196;10.924;2023-06-22T15:12:08;34.00;1.00
8422;DHT22;4248;48.196;10.924;2023-06-22T15:14:40;33.80;1.00
8422;DHT22;4248;48.196;10.924;2023-06-22T15:17:07;33.70;1.00
8422;DHT22;4248;48.196;10.924;2023-06-22T15:19:35;33.60;1.00
8422;DHT22;4248;48.196;10.924;2023-06-22T15:22:02;33.60;1.00
8422;DHT22;4248;48.196;10.924;2023-06-22T15:24:27;33.80;1.00
8422;DHT22;4248;48.196;10.924;2023-06-22T15:26:53;33.90;1.00
8422;DHT22;4248;48.196;10.924;2023-06-22T15:29:19;33.90;1.00
8422;DHT22;4248;48.196;10.924;2023-06-22T15:31:44;34.00;1.00
8422;DHT22;4248;48.196;10.924;2023-06-22T15:34:13;34.00;1.00
8422;DHT22;4248;48.196;10.924;2023-06-22T15:36:38;33.80;1.00
8422;DHT22;4248;48.196;10.924;2023-06-22T15:39:04;33.60;1.00
8422;DHT22;4248;48.196;10.924;2023-06-22T15:41:29;33.50;1.00
8422;DHT22;4248;48.196;10.924;2023-06-22T15:43:55;33.50;1.00
8422;DHT22;4248;48.196;10.924;2023-06-22T15:46:20;33.40;1.00
8422;DHT22;4248;48.196;10.924;2023-06-22T15:48:46;33.40;1.00
8422;DHT22;4248;48.196;10.924;2023-06-22T15:51:12;33.10;1.00
8422;DHT22;4248;48.196;10.924;2023-06-22T15:53:39;33.10;1.00
8422;DHT22;4248;48.196;10.924;2023-06-22T15:56:05;33.00;1.00